createdAt,value
2023-06-03T00:02:43.312Z,2.22
2023-06-03T00:05:45.525Z,1.90
2023-06-03T00:08:47.552Z,2.00
2023-06-03T00:11:49.645Z,2.00
2023-06-03T00:14:51.749Z,2.33
2023-06-03T00:17:53.835Z,2.20
2023-06-03T00:20:56.537Z,1.93
2023-06-03T00:23:58.702Z,1.85
2023-06-03T00:27:00.770Z,2.25
2023-06-03T00:30:04.999Z,1.83
2023-06-03T00:33:07.332Z,2.35
2023-06-03T00:36:09.489Z,1.93
2023-06-03T00:39:11.640Z,2.17
2023-06-03T00:42:14.019Z,2.00
2023-06-03T00:45:15.997Z,2.35
2023-06-03T00:48:18.073Z,2.30
2023-06-03T00:51:21.616Z,2.13
2023-06-03T00:54:23.803Z,2.45
2023-06-03T00:57:27.447Z,1.80
2023-06-03T01:00:29.490Z,2.55
2023-06-03T01:03:32.774Z,2.42
2023-06-03T01:06:48.817Z,2.33
2023-06-03T01:10:10.766Z,2.05
2023-06-03T01:13:24.017Z,2.28
2023-06-03T01:16:27.814Z,2.80
2023-06-03T01:19:48.741Z,2.65
2023-06-03T01:22:57.653Z,2.67
2023-06-03T01:25:59.644Z,2.58
2023-06-03T01:29:02.861Z,2.10
2023-06-03T01:32:06.158Z,2.13
2023-06-03T01:35:10.554Z,2.10
2023-06-03T01:38:12.846Z,2.60
2023-06-03T01:41:15.430Z,2.28
2023-06-03T01:44:17.699Z,2.40
2023-06-03T01:47:20.503Z,2.20
2023-06-03T01:50:23.801Z,2.27
2023-06-03T01:53:26.161Z,2.38
2023-06-03T01:56:28.432Z,1.98
2023-06-03T01:59:30.608Z,2.20
2023-06-03T02:02:32.875Z,2.00
2023-06-03T02:05:35.003Z,2.03
2023-06-03T02:08:37.257Z,2.10
2023-06-03T02:11:39.383Z,2.10
2023-06-03T02:14:41.523Z,2.17
2023-06-03T02:17:45.076Z,1.77
2023-06-03T02:20:47.399Z,2.23
2023-06-03T02:23:49.410Z,2.25
2023-06-03T02:26:51.562Z,1.95
2023-06-03T02:29:53.660Z,2.35
2023-06-03T02:32:55.748Z,2.22
2023-06-03T02:35:59.433Z,2.30
2023-06-03T02:39:01.522Z,2.30
2023-06-03T02:42:03.887Z,1.60
2023-06-03T02:45:06.630Z,2.08
2023-06-03T02:48:08.752Z,1.60
2023-06-03T02:51:11.052Z,2.03
2023-06-03T02:54:13.107Z,1.92
2023-06-03T02:57:15.374Z,2.03
2023-06-03T03:00:17.715Z,2.38
2023-06-03T03:03:21.129Z,1.92
2023-06-03T03:06:25.295Z,2.17
2023-06-03T03:09:27.448Z,1.70
2023-06-03T03:12:29.548Z,1.77
2023-06-03T03:15:31.734Z,1.80
2023-06-03T03:18:33.963Z,2.33
2023-06-03T03:21:37.884Z,1.87
2023-06-03T03:24:45.178Z,1.90
2023-06-03T03:27:49.377Z,1.90
2023-06-03T03:30:51.483Z,1.80
2023-06-03T03:33:54.250Z,1.58
2023-06-03T03:36:57.479Z,1.23
2023-06-03T03:39:59.553Z,1.60
2023-06-03T03:43:03.968Z,1.75
2023-06-03T03:46:11.020Z,1.52
2023-06-03T03:49:20.312Z,1.70
2023-06-03T03:52:31.145Z,1.50
2023-06-03T03:55:39.466Z,1.77
2023-06-03T03:58:43.895Z,1.50
2023-06-03T04:01:51.916Z,1.38
2023-06-03T04:04:57.172Z,1.40
2023-06-03T04:07:59.208Z,1.40
2023-06-03T04:11:01.350Z,1.52
2023-06-03T04:14:05.025Z,1.52
2023-06-03T04:17:10.112Z,1.10
2023-06-03T04:20:28.662Z,1.47
2023-06-03T04:23:30.769Z,1.50
2023-06-03T04:26:32.919Z,1.08
2023-06-03T04:29:35.150Z,1.33
2023-06-03T04:32:38.197Z,1.10
2023-06-03T04:35:41.243Z,1.10
2023-06-03T04:38:44.512Z,1.25
2023-06-03T04:41:47.381Z,1.10
2023-06-03T04:44:50.872Z,0.85
2023-06-03T04:47:59.562Z,1.15
2023-06-03T04:51:07.964Z,0.90
2023-06-03T04:54:11.086Z,1.30
2023-06-03T04:57:17.271Z,1.17
2023-06-03T05:00:20.639Z,1.23
2023-06-03T05:03:28.011Z,0.95
2023-06-03T05:06:30.418Z,1.07
2023-06-03T05:09:32.602Z,1.20
2023-06-03T05:12:35.048Z,0.90
2023-06-03T05:15:38.574Z,1.30
2023-06-03T05:18:41.509Z,1.00
2023-06-03T05:21:43.691Z,1.27
2023-06-03T05:24:46.749Z,0.75
2023-06-03T05:28:02.087Z,0.80
2023-06-03T05:31:06.453Z,0.95
2023-06-03T05:34:09.557Z,0.98
2023-06-03T05:37:11.993Z,1.43
2023-06-03T05:40:14.518Z,1.00
2023-06-03T05:43:16.667Z,1.30
2023-06-03T05:46:19.368Z,1.20
2023-06-03T05:49:21.471Z,1.10
2023-06-03T05:52:24.174Z,1.43
2023-06-03T05:55:26.956Z,1.17
2023-06-03T05:58:30.285Z,1.38
2023-06-03T06:01:34.828Z,1.48
2023-06-03T06:04:37.035Z,1.52
2023-06-03T06:07:39.270Z,1.30
2023-06-03T06:10:41.417Z,1.40
2023-06-03T06:13:43.960Z,1.23
2023-06-03T06:16:46.132Z,0.95
2023-06-03T06:19:48.842Z,1.35
2023-06-03T06:22:50.952Z,1.10
2023-06-03T06:25:54.545Z,1.50
2023-06-03T06:28:57.806Z,1.30
2023-06-03T06:32:05.300Z,1.27
2023-06-03T06:35:08.209Z,1.10
2023-06-03T06:38:11.376Z,1.20
2023-06-03T06:41:16.066Z,1.17
2023-06-03T06:44:18.581Z,1.25
2023-06-03T06:47:28.520Z,1.05
2023-06-03T06:50:48.804Z,1.30
2023-06-03T06:53:53.887Z,1.20
2023-06-03T06:56:56.127Z,1.20
2023-06-03T06:59:58.182Z,1.20
2023-06-03T07:03:01.317Z,1.15
2023-06-03T07:06:04.600Z,1.20
2023-06-03T07:09:08.691Z,1.30
2023-06-03T07:12:11.610Z,1.38
2023-06-03T07:15:13.957Z,0.93
2023-06-03T07:18:16.301Z,1.00
2023-06-03T07:21:26.409Z,1.60
2023-06-03T07:24:35.567Z,0.93
2023-06-03T07:27:38.433Z,0.90
2023-06-03T07:30:42.336Z,1.30
2023-06-03T07:33:54.595Z,1.20
2023-06-03T07:37:03.793Z,1.40
2023-06-03T07:40:19.311Z,1.20
2023-06-03T07:43:22.155Z,1.23
2023-06-03T07:46:39.113Z,1.10
2023-06-03T07:49:41.333Z,1.17
2023-06-03T07:52:43.360Z,1.00
2023-06-03T07:55:46.195Z,0.80
2023-06-03T07:58:48.395Z,0.90
2023-06-03T08:01:52.388Z,0.90
2023-06-03T08:05:01.487Z,1.20
2023-06-03T08:08:12.034Z,1.10
2023-06-03T08:11:14.185Z,1.13
2023-06-03T08:14:16.476Z,1.00
2023-06-03T08:17:29.857Z,0.90
2023-06-03T08:20:33.291Z,0.93
2023-06-03T08:23:35.869Z,1.33
2023-06-03T08:26:37.956Z,3.00
2023-06-03T08:29:39.938Z,1.83
2023-06-03T08:32:43.511Z,2.10
2023-06-03T08:35:46.105Z,1.25
2023-06-03T08:38:48.188Z,1.13
2023-06-03T08:41:55.411Z,1.40
2023-06-03T08:45:05.531Z,0.93
2023-06-03T08:48:37.594Z,1.00
2023-06-03T08:51:40.744Z,1.30
2023-06-03T08:54:43.336Z,1.38
2023-06-03T08:57:54.295Z,1.30
2023-06-03T09:01:00.473Z,1.33
2023-06-03T09:04:04.273Z,1.33
2023-06-03T09:07:08.577Z,1.98
2023-06-03T09:10:12.442Z,1.50
2023-06-03T09:13:18.265Z,1.43
2023-06-03T09:16:21.194Z,2.80
2023-06-03T09:19:23.449Z,1.75
2023-06-03T09:22:27.117Z,1.40
2023-06-03T09:25:29.358Z,1.33
2023-06-03T09:28:31.412Z,1.70
2023-06-03T09:31:33.426Z,1.87
2023-06-03T09:34:36.525Z,1.60
2023-06-03T09:37:38.641Z,1.63
2023-06-03T09:40:40.748Z,2.08
2023-06-03T09:43:55.822Z,1.43
2023-06-03T09:46:57.937Z,1.50
2023-06-03T09:50:03.846Z,1.30
2023-06-03T09:53:20.084Z,1.40
2023-06-03T09:56:27.974Z,1.60
2023-06-03T09:59:31.020Z,1.23
2023-06-03T10:02:33.136Z,1.97
2023-06-03T10:05:35.961Z,1.48
2023-06-03T10:08:39.226Z,1.70
2023-06-03T10:11:50.835Z,1.90
2023-06-03T10:14:52.955Z,1.87
2023-06-03T10:17:55.020Z,1.40
2023-06-03T10:20:57.028Z,1.30
2023-06-03T10:24:01.753Z,1.35
2023-06-03T10:27:04.520Z,1.40
2023-06-03T10:30:08.784Z,1.80
2023-06-03T10:33:11.655Z,1.40
2023-06-03T10:36:13.929Z,1.45
2023-06-03T10:39:16.102Z,1.52
2023-06-03T10:42:18.804Z,1.70
2023-06-03T10:45:20.922Z,1.60
2023-06-03T10:48:24.524Z,1.70
2023-06-03T10:51:59.346Z,1.90
2023-06-03T10:55:28.648Z,1.67
2023-06-03T10:58:31.683Z,1.67
2023-06-03T11:01:59.845Z,1.83
2023-06-03T11:05:21.808Z,1.70
2023-06-03T11:09:03.748Z,1.60
2023-06-03T11:12:14.342Z,1.80
2023-06-03T11:15:16.728Z,1.58
2023-06-03T11:18:19.022Z,2.03
2023-06-03T11:21:47.297Z,1.63
2023-06-03T11:24:52.094Z,1.75
2023-06-03T11:27:54.203Z,1.90
2023-06-03T11:30:57.052Z,1.55
2023-06-03T11:34:24.919Z,2.10
2023-06-03T11:37:42.126Z,2.67
2023-06-03T11:40:46.133Z,1.92
2023-06-03T11:47:51.290Z,1.77
2023-06-03T11:50:57.808Z,2.00
2023-06-03T11:54:12.550Z,1.70
2023-06-03T11:57:14.855Z,1.92
2023-06-03T12:00:19.599Z,2.03
2023-06-03T12:03:23.333Z,1.45
2023-06-03T12:06:26.718Z,1.90
2023-06-03T12:09:31.138Z,1.63
2023-06-03T12:12:33.176Z,1.95
2023-06-03T12:15:35.146Z,2.10
2023-06-03T12:18:37.242Z,1.80
2023-06-03T12:21:40.527Z,1.73
2023-06-03T12:24:44.001Z,1.57
2023-06-03T12:27:46.064Z,1.77
2023-06-03T12:30:48.040Z,2.13
2023-06-03T12:33:50.806Z,1.67
2023-06-03T12:36:52.848Z,1.47
2023-06-03T12:39:55.407Z,1.50
2023-06-03T12:43:01.671Z,1.60
2023-06-03T12:46:17.841Z,1.90
2023-06-03T12:52:25.488Z,1.50
2023-06-03T12:55:27.650Z,1.73
2023-06-03T12:58:29.637Z,1.63
2023-06-03T13:01:31.854Z,1.73
2023-06-03T13:04:34.006Z,1.73
2023-06-03T13:07:38.071Z,1.67
2023-06-03T13:10:40.053Z,1.50
2023-06-03T13:13:42.081Z,1.77
2023-06-03T13:16:44.166Z,1.92
2023-06-03T13:19:48.463Z,1.70
2023-06-03T13:22:50.608Z,1.90
2023-06-03T13:25:52.618Z,1.87
2023-06-03T13:28:54.792Z,1.80
2023-06-03T13:31:56.797Z,1.80
2023-06-03T13:35:00.418Z,1.75
2023-06-03T13:38:02.517Z,1.57
2023-06-03T13:41:04.838Z,1.90
2023-06-03T13:44:07.097Z,1.80
2023-06-03T13:47:10.072Z,1.42
2023-06-03T13:50:12.067Z,1.90
2023-06-03T13:53:14.213Z,1.93
2023-06-03T13:56:16.234Z,1.60
2023-06-03T13:59:18.183Z,1.50
2023-06-03T14:02:20.200Z,1.30
2023-06-03T14:05:22.383Z,1.90
2023-06-03T14:08:26.038Z,1.30
2023-06-03T14:11:28.055Z,1.63
2023-06-03T14:14:30.077Z,1.70
2023-06-03T14:17:32.253Z,1.50
2023-06-03T14:20:34.571Z,1.17
2023-06-03T14:23:36.696Z,1.70
2023-06-03T14:26:39.993Z,1.53
2023-06-03T14:29:42.281Z,1.45
2023-06-03T14:32:44.537Z,2.20
2023-06-03T14:35:46.563Z,1.50
2023-06-03T14:38:48.546Z,1.73
2023-06-03T14:45:01.364Z,1.52
2023-06-03T14:48:04.201Z,1.10
2023-06-03T14:51:06.499Z,1.48
2023-06-03T14:54:08.689Z,1.47
2023-06-03T14:57:11.014Z,1.60
2023-06-03T15:00:14.516Z,1.50
2023-06-03T15:03:17.533Z,1.30
2023-06-03T15:06:21.170Z,1.45
2023-06-03T15:09:23.487Z,1.53
2023-06-03T15:12:25.797Z,1.47
2023-06-03T15:15:27.924Z,1.30
2023-06-03T15:18:30.542Z,1.30
2023-06-03T15:21:32.633Z,1.65
2023-06-03T15:24:34.663Z,1.60
2023-06-03T15:27:37.586Z,1.37
2023-06-03T15:30:39.572Z,1.30
2023-06-03T15:33:41.546Z,1.00
2023-06-03T15:36:43.584Z,1.15
2023-06-03T15:39:45.544Z,1.30
2023-06-03T15:42:47.597Z,1.30
2023-06-03T15:45:49.681Z,1.40
2023-06-03T15:48:51.779Z,1.10
2023-06-03T15:51:54.298Z,1.10
2023-06-03T15:54:56.227Z,1.63
2023-06-03T15:57:58.306Z,1.30
2023-06-03T16:01:00.855Z,1.50
2023-06-03T16:04:03.890Z,1.20
2023-06-03T16:07:06.051Z,1.30
2023-06-03T16:10:08.388Z,0.97
2023-06-03T16:13:10.625Z,1.10
2023-06-03T16:16:12.597Z,1.10
2023-06-03T16:19:14.632Z,0.95
2023-06-03T16:22:16.732Z,1.02
2023-06-03T16:25:18.857Z,0.87
2023-06-03T16:28:21.238Z,0.80
2023-06-03T16:31:23.724Z,1.08
2023-06-03T16:34:26.129Z,0.80
2023-06-03T16:37:28.116Z,0.80
2023-06-03T16:40:30.138Z,0.93
2023-06-03T16:43:32.096Z,0.93
2023-06-03T16:46:34.224Z,0.90
2023-06-03T16:49:36.225Z,0.93
2023-06-03T16:52:38.626Z,0.73
2023-06-03T16:55:41.724Z,0.87
2023-06-03T16:58:44.172Z,1.00
2023-06-03T17:01:46.738Z,0.63
2023-06-03T17:04:48.973Z,0.70
2023-06-03T17:07:50.951Z,1.08
2023-06-03T17:10:52.996Z,0.87
2023-06-03T17:13:55.064Z,0.97
2023-06-03T17:16:57.206Z,0.85
2023-06-03T17:19:59.302Z,0.57
2023-06-03T17:23:01.277Z,1.00
2023-06-03T17:26:03.696Z,0.87
2023-06-03T17:29:07.956Z,1.00
2023-06-03T17:32:09.975Z,0.95
2023-06-03T17:35:11.911Z,0.60
2023-06-03T17:38:13.910Z,0.60
2023-06-03T17:41:16.173Z,0.73
2023-06-03T17:44:22.361Z,0.77
2023-06-03T17:47:24.494Z,0.70
2023-06-03T17:50:26.456Z,0.85
2023-06-03T17:53:28.457Z,0.90
2023-06-03T17:56:30.612Z,0.80
2023-06-03T17:59:32.592Z,0.90
2023-06-03T18:02:36.464Z,1.10
2023-06-03T18:05:38.538Z,0.90
2023-06-03T18:08:40.542Z,0.90
2023-06-03T18:11:42.638Z,0.90
2023-06-03T18:14:44.581Z,0.80
2023-06-03T18:17:46.661Z,0.63
2023-06-03T18:20:48.731Z,0.70
2023-06-03T18:23:50.770Z,0.50
2023-06-03T18:26:52.972Z,0.60
2023-06-03T18:29:54.959Z,0.70
2023-06-03T18:32:57.106Z,0.57
2023-06-03T18:35:59.163Z,0.60
2023-06-03T18:39:01.212Z,0.68
2023-06-03T18:42:03.298Z,0.50
2023-06-03T18:45:05.856Z,0.60
2023-06-03T18:48:07.946Z,0.80
2023-06-03T18:51:10.443Z,0.50
2023-06-03T18:54:12.562Z,0.50
2023-06-03T18:57:14.647Z,0.63
2023-06-03T19:00:17.524Z,0.52
2023-06-03T19:03:27.549Z,0.77
2023-06-03T19:06:30.894Z,0.75
2023-06-03T19:09:33.004Z,1.05
2023-06-03T19:12:35.024Z,1.37
2023-06-03T19:15:38.811Z,1.77
2023-06-03T19:18:40.877Z,1.88
2023-06-03T19:21:43.703Z,1.25
2023-06-03T19:24:45.629Z,1.63
2023-06-03T19:27:47.621Z,0.80
2023-06-03T19:30:49.606Z,0.70
2023-06-03T19:33:52.900Z,0.80
2023-06-03T19:36:54.981Z,0.60
2023-06-03T19:39:58.731Z,0.65
2023-06-03T19:43:01.889Z,0.80
2023-06-03T19:46:04.183Z,1.33
2023-06-03T19:49:06.933Z,1.02
2023-06-03T19:52:09.258Z,0.70
2023-06-03T19:55:11.478Z,0.98
2023-06-03T19:58:14.008Z,0.87
2023-06-03T20:01:16.490Z,0.65
2023-06-03T20:04:18.457Z,0.60
2023-06-03T20:07:21.809Z,0.60
2023-06-03T20:10:23.836Z,0.50
2023-06-03T20:13:34.731Z,0.60
2023-06-03T20:16:37.430Z,0.70
2023-06-03T20:19:39.542Z,0.70
2023-06-03T20:22:41.664Z,0.90
2023-06-03T20:25:43.762Z,0.70
2023-06-03T20:28:46.021Z,0.53
2023-06-03T20:31:48.053Z,0.50
2023-06-03T20:34:50.073Z,0.75
2023-06-03T20:37:52.333Z,0.50
2023-06-03T20:40:54.342Z,0.60
2023-06-03T20:43:56.434Z,0.80
2023-06-03T20:46:58.893Z,0.50
2023-06-03T20:50:01.153Z,0.70
2023-06-03T20:53:03.226Z,0.75
2023-06-03T20:56:05.416Z,0.65
2023-06-03T20:59:07.708Z,0.90
2023-06-03T21:02:09.857Z,0.85
2023-06-03T21:05:12.052Z,0.63
2023-06-03T21:08:14.612Z,0.70
2023-06-03T21:11:16.599Z,0.70
2023-06-03T21:18:16.328Z,0.60
2023-06-03T21:21:18.351Z,1.05
2023-06-03T21:24:21.033Z,0.70
2023-06-03T21:27:23.282Z,0.80
2023-06-03T21:30:25.332Z,0.63
2023-06-03T21:33:27.398Z,0.80
2023-06-03T21:36:29.454Z,0.80
2023-06-03T21:39:31.556Z,0.55
2023-06-03T21:42:33.581Z,0.70
2023-06-03T21:45:35.988Z,0.67
2023-06-03T21:48:38.189Z,0.60
2023-06-03T21:51:40.139Z,0.80
2023-06-03T21:54:43.329Z,0.77
2023-06-03T21:57:45.476Z,0.52
2023-06-03T22:00:47.728Z,0.80
2023-06-03T22:03:49.804Z,0.80
2023-06-03T22:06:51.938Z,0.70
2023-06-03T22:09:53.920Z,0.65
2023-06-03T22:12:56.170Z,0.47
2023-06-03T22:15:58.226Z,0.70
2023-06-03T22:19:00.179Z,0.60
2023-06-03T22:22:02.134Z,0.70
2023-06-03T22:25:04.515Z,0.73
2023-06-03T22:28:06.588Z,0.70
2023-06-03T22:31:08.868Z,0.60
2023-06-03T22:34:11.294Z,0.73
2023-06-03T22:37:13.256Z,0.85
2023-06-03T22:40:15.319Z,1.00
2023-06-03T22:43:21.742Z,0.60
2023-06-03T22:46:23.947Z,0.60
2023-06-03T22:49:25.992Z,0.60
2023-06-03T22:52:28.058Z,0.60
2023-06-03T22:55:30.162Z,0.80
2023-06-03T22:58:32.298Z,0.63
2023-06-03T23:01:34.412Z,1.00
2023-06-03T23:04:36.358Z,1.10
2023-06-03T23:07:38.310Z,0.75
2023-06-03T23:10:40.275Z,0.80
2023-06-03T23:13:43.192Z,0.68
2023-06-03T23:16:45.252Z,0.73
2023-06-03T23:19:47.295Z,0.73
2023-06-03T23:22:51.056Z,0.60
2023-06-03T23:25:54.265Z,0.77
2023-06-03T23:28:56.232Z,0.70
2023-06-03T23:31:58.213Z,0.70
2023-06-03T23:35:00.141Z,0.90
2023-06-03T23:38:02.161Z,0.82
2023-06-03T23:41:04.362Z,0.65
2023-06-03T23:44:06.607Z,0.55
2023-06-03T23:47:08.757Z,0.57
2023-06-03T23:50:11.156Z,0.52
2023-06-03T23:53:13.084Z,0.70
2023-06-03T23:56:15.499Z,0.63
2023-06-03T23:59:17.452Z,0.57
